Time;durP1;ratioP1;P1;durP2;ratioP2;P2;SDS_P1;SDS_P2;PMS_P1;PMS_P2;Temp;Humidity;BMP_temperature;BMP_pressure;BME280_temperature;BME280_humidity;BME280_pressure;Samples;Min_cycle;Max_cycle;Signal;HPM_P1;HPM_P2
2022/07/16 00:02:34;;;;;;;2.65;1.70;;;;;;;21.42;42.58;102056.91;5087702;28;20244;-64
2022/07/16 00:05:02;;;;;;;3.17;1.90;;;;;;;21.40;42.78;102048.13;5083592;28;20048;-64
2022/07/16 00:07:30;;;;;;;4.63;1.67;;;;;;;21.38;42.86;102058.50;5098118;28;20075;-64
2022/07/16 00:09:58;;;;;;;4.07;1.60;;;;;;;21.29;42.80;102037.41;5084799;28;20049;-64
2022/07/16 00:12:26;;;;;;;4.40;1.77;;;;;;;21.35;42.95;102058.22;5090506;28;20048;-64
2022/07/16 00:14:54;;;;;;;2.88;1.58;;;;;;;21.33;42.82;102050.28;5081635;28;20072;-64
2022/07/16 00:17:22;;;;;;;8.43;2.05;;;;;;;21.29;43.18;102045.59;5054983;28;20075;-63
2022/07/16 00:19:50;;;;;;;3.65;1.90;;;;;;;21.29;42.89;102051.91;5083587;28;20059;-63
2022/07/16 00:22:18;;;;;;;6.15;1.98;;;;;;;21.28;43.10;102041.22;5081576;28;20063;-64
2022/07/16 00:24:46;;;;;;;3.20;1.50;;;;;;;21.25;43.04;102048.03;5079004;28;20128;-64
2022/07/16 00:27:13;;;;;;;1.63;1.35;;;;;;;21.25;43.28;102045.31;5082646;28;20052;-64
2022/07/16 00:29:41;;;;;;;4.95;2.10;;;;;;;21.23;43.22;102050.22;5087820;28;20111;-64
2022/07/16 00:32:09;;;;;;;7.40;1.77;;;;;;;21.21;43.20;102038.69;5084484;28;20049;-64
2022/07/16 00:34:37;;;;;;;3.05;2.00;;;;;;;21.19;43.23;102043.59;5084414;28;20083;-63
2022/07/16 00:37:06;;;;;;;4.85;2.10;;;;;;;21.20;43.21;102041.69;5081112;28;20041;-64
2022/07/16 00:39:34;;;;;;;5.80;1.88;;;;;;;21.19;43.32;102040.03;5082889;28;20063;-63
2022/07/16 00:42:01;;;;;;;4.85;1.73;;;;;;;21.18;43.23;102047.41;5089592;28;20049;-64
2022/07/16 00:44:29;;;;;;;4.47;1.70;;;;;;;21.17;43.12;102055.88;5089842;28;20073;-64
2022/07/16 00:46:57;;;;;;;3.50;1.83;;;;;;;21.15;43.13;102045.22;5083109;28;20045;-64
2022/07/16 00:49:25;;;;;;;4.45;2.20;;;;;;;21.13;43.14;102050.94;5087120;28;20071;-64
2022/07/16 00:51:54;;;;;;;3.25;1.70;;;;;;;21.12;43.06;102046.56;5091946;28;20099;-63
2022/07/16 00:54:23;;;;;;;3.17;1.90;;;;;;;21.12;43.06;102051.19;5072309;28;20044;-64
2022/07/16 00:56:51;;;;;;;4.22;2.00;;;;;;;21.11;43.23;102052.28;5081062;28;20171;-64
2022/07/16 00:59:18;;;;;;;4.97;2.08;;;;;;;21.10;43.02;102056.09;5092348;28;20052;-63
2022/07/16 01:01:47;;;;;;;3.72;1.90;;;;;;;21.08;43.19;102050.91;5089240;28;20083;-63
2022/07/16 01:04:15;;;;;;;6.32;2.13;;;;;;;21.06;43.21;102049.53;5091558;28;20441;-63
2022/07/16 01:06:45;;;;;;;5.28;2.03;;;;;;;21.06;43.14;102044.06;5086079;28;20067;-63
2022/07/16 01:09:13;;;;;;;4.95;1.95;;;;;;;21.04;43.21;102047.03;5084821;28;20098;-64
2022/07/16 01:11:43;;;;;;;7.75;1.80;;;;;;;21.04;43.08;102047.03;5078724;28;20049;-63
2022/07/16 01:14:11;;;;;;;4.10;1.70;;;;;;;20.97;43.13;102043.72;5093064;28;20040;-63
2022/07/16 01:16:39;;;;;;;5.15;1.90;;;;;;;21.04;43.20;102048.97;5082393;28;20076;-63
2022/07/16 01:19:09;;;;;;;3.55;2.20;;;;;;;21.02;43.10;102051.13;5080958;28;20087;-63
2022/07/16 01:21:36;;;;;;;2.63;1.60;;;;;;;21.00;43.05;102054.13;5082825;28;20533;-63
2022/07/16 01:24:06;;;;;;;3.20;1.63;;;;;;;20.99;43.04;102049.75;5089777;28;20048;-63
2022/07/16 01:26:34;;;;;;;5.03;1.83;;;;;;;20.97;43.12;102046.44;5079792;28;20072;-63
2022/07/16 01:29:02;;;;;;;3.67;1.73;;;;;;;20.96;43.18;102039.34;5083641;28;20044;-63
2022/07/16 01:31:29;;;;;;;3.15;1.50;;;;;;;20.95;43.09;102045.88;5084820;28;20048;-63
2022/07/16 01:36:43;;;;;;;3.28;1.65;;;;;;;20.92;43.15;102032.75;5082744;28;20052;-64
2022/07/16 01:39:12;;;;;;;6.45;1.73;;;;;;;20.91;43.11;102033.00;5092497;28;20049;-63
2022/07/16 01:41:39;;;;;;;3.13;1.60;;;;;;;20.90;43.14;102036.81;5077106;28;20375;-63
2022/07/16 01:44:07;;;;;;;3.40;1.80;;;;;;;20.89;43.20;102032.44;5077178;28;20055;-63
2022/07/16 01:46:35;;;;;;;3.67;1.67;;;;;;;20.89;43.05;102043.38;5093216;28;20060;-63
2022/07/16 01:49:03;;;;;;;3.88;2.10;;;;;;;20.88;42.98;102044.47;5093116;28;20163;-64
2022/07/16 01:51:30;;;;;;;5.38;1.65;;;;;;;20.86;42.94;102047.47;5084710;28;20059;-64
2022/07/16 01:53:58;;;;;;;3.42;1.80;;;;;;;20.83;43.11;102047.97;5074556;28;20045;-63
2022/07/16 01:56:27;;;;;;;5.18;1.83;;;;;;;20.84;43.11;102048.81;5082092;28;20059;-63
2022/07/16 01:58:55;;;;;;;4.25;2.22;;;;;;;20.81;42.96;102050.16;5078441;28;20079;-63
2022/07/16 02:01:23;;;;;;;4.75;2.25;;;;;;;20.80;43.04;102048.53;5080348;28;20064;-64
2022/07/16 02:03:50;;;;;;;4.35;1.63;;;;;;;20.80;43.08;102054.78;5083376;28;20052;-63
2022/07/16 02:06:18;;;;;;;3.97;1.75;;;;;;;20.77;43.08;102049.88;5098620;28;20055;-64
2022/07/16 02:08:47;;;;;;;4.57;1.60;;;;;;;20.77;43.13;102052.59;5085829;28;20064;-63
2022/07/16 02:11:14;;;;;;;4.30;1.60;;;;;;;20.75;42.94;102049.31;5095194;28;20063;-63
2022/07/16 02:13:44;;;;;;;3.08;1.50;;;;;;;20.73;43.12;102043.28;5085893;28;20064;-63
2022/07/16 02:16:12;;;;;;;4.10;1.75;;;;;;;20.72;43.14;102038.09;5093455;28;20112;-63
2022/07/16 02:18:40;;;;;;;5.15;1.80;;;;;;;20.72;42.99;102027.16;5080685;28;20048;-63
2022/07/16 02:21:08;;;;;;;3.22;1.90;;;;;;;20.68;43.04;102032.31;5089198;28;20048;-63
2022/07/16 02:23:36;;;;;;;3.10;1.80;;;;;;;20.71;42.95;102031.78;5087855;28;20055;-63
2022/07/16 02:26:03;;;;;;;3.50;1.63;;;;;;;20.63;42.85;102023.25;5084525;28;20048;-63
2022/07/16 02:28:31;;;;;;;5.22;1.83;;;;;;;20.69;42.83;102033.97;5075644;28;20037;-63
2022/07/16 02:31:00;;;;;;;2.90;1.55;;;;;;;20.67;42.89;102030.66;5082704;28;20064;-63
2022/07/16 02:33:28;;;;;;;3.65;1.55;;;;;;;20.68;42.78;102029.59;5074186;28;20075;-63
2022/07/16 02:35:56;;;;;;;6.90;1.77;;;;;;;20.67;42.86;102035.31;5072689;28;20128;-63
2022/07/16 02:38:24;;;;;;;6.15;1.92;;;;;;;20.65;42.82;102024.63;5081655;28;20049;-63
2022/07/16 02:40:51;;;;;;;3.67;1.70;;;;;;;20.65;42.64;102021.09;5086992;28;20066;-63
2022/07/16 02:43:19;;;;;;;4.10;1.67;;;;;;;20.64;42.83;102024.91;5079216;28;20045;-63
2022/07/16 02:45:47;;;;;;;2.22;1.58;;;;;;;20.64;42.75;102019.44;5077406;28;20055;-63
2022/07/16 02:48:16;;;;;;;2.42;1.70;;;;;;;20.63;42.98;102021.34;5084105;28;20079;-63
2022/07/16 02:50:44;;;;;;;4.55;1.85;;;;;;;20.62;42.93;102025.16;5084035;28;20072;-64
2022/07/16 02:53:11;;;;;;;4.10;1.85;;;;;;;20.61;42.92;102020.78;5081675;28;20490;-64
2022/07/16 02:55:39;;;;;;;3.20;1.73;;;;;;;20.60;42.95;102018.31;5087450;28;20121;-64
2022/07/16 02:58:07;;;;;;;2.78;1.92;;;;;;;20.60;42.92;102021.03;5094170;28;20379;-64
2022/07/16 03:00:35;;;;;;;3.15;1.77;;;;;;;20.59;42.83;102022.94;5086964;28;20071;-64
2022/07/16 03:03:02;;;;;;;5.22;1.77;;;;;;;20.58;42.89;102021.31;5081952;28;20045;-64
2022/07/16 03:05:32;;;;;;;4.22;2.17;;;;;;;20.57;43.03;102019.66;5098377;28;20044;-62
2022/07/16 03:07:59;;;;;;;4.30;2.08;;;;;;;20.55;42.86;102021.00;5094069;28;20048;-63
2022/07/16 03:10:27;;;;;;;5.70;2.20;;;;;;;20.55;42.93;102023.72;5088476;28;20055;-63
2022/07/16 03:12:55;;;;;;;3.05;1.90;;;;;;;20.53;42.85;102032.19;5082641;28;20143;-63
2022/07/16 03:15:23;;;;;;;6.30;2.17;;;;;;;20.51;43.00;102034.34;5086292;28;20097;-63
2022/07/16 03:17:51;;;;;;;3.33;1.90;;;;;;;20.50;42.98;102032.69;5085789;28;20044;-63
2022/07/16 03:20:19;;;;;;;6.57;2.95;;;;;;;20.49;43.11;102036.50;5083381;28;20151;-63
2022/07/16 03:22:48;;;;;;;4.95;2.15;;;;;;;20.48;43.19;102043.06;5090816;28;20047;-63
2022/07/16 03:25:17;;;;;;;4.07;2.15;;;;;;;20.47;43.11;102041.41;5091476;28;20055;-63
2022/07/16 03:27:45;;;;;;;3.95;2.03;;;;;;;20.46;43.31;102045.22;5084327;28;20049;-63
2022/07/16 03:30:14;;;;;;;5.45;2.40;;;;;;;20.44;43.17;102050.94;5085820;28;20075;-63
2022/07/16 03:32:42;;;;;;;4.25;2.00;;;;;;;20.43;43.27;102041.09;5085919;28;20048;-63
2022/07/16 03:35:12;;;;;;;3.83;2.05;;;;;;;20.38;43.32;102042.94;5087126;28;20060;-63
2022/07/16 03:40:24;;;;;;;4.55;2.50;;;;;;;20.39;43.39;102055.53;5075085;28;20064;-63
2022/07/16 03:42:52;;;;;;;4.50;1.98;;;;;;;20.37;43.25;102052.19;5087896;28;20044;-63
2022/07/16 03:45:19;;;;;;;6.10;1.98;;;;;;;20.37;43.39;102053.03;5085886;28;20386;-63
2022/07/16 03:47:47;;;;;;;5.05;2.25;;;;;;;20.36;43.58;102064.22;5096368;28;20052;-63
2022/07/16 03:50:15;;;;;;;4.28;1.98;;;;;;;20.33;43.55;102053.81;5085424;28;20084;-63
2022/07/16 03:52:44;;;;;;;4.00;1.90;;;;;;;20.28;43.88;102053.75;5084842;28;20049;-63
2022/07/16 03:55:13;;;;;;;5.10;2.10;;;;;;;20.30;43.77;102054.31;5081688;28;20053;-63
2022/07/16 03:57:42;;;;;;;4.57;2.10;;;;;;;20.28;43.70;102048.28;5085992;28;20083;-63
2022/07/16 04:00:12;;;;;;;3.67;2.13;;;;;;;20.29;44.05;102061.69;5081271;28;20052;-63
2022/07/16 04:02:40;;;;;;;5.20;2.17;;;;;;;20.28;44.00;102067.41;5085544;28;20509;-63
2022/07/16 04:05:08;;;;;;;7.13;2.15;;;;;;;20.27;44.35;102072.03;5074732;28;20073;-63
2022/07/16 04:07:36;;;;;;;3.58;1.95;;;;;;;20.26;44.24;102064.09;5083184;28;20052;-63
2022/07/16 04:10:05;;;;;;;6.95;2.40;;;;;;;20.26;44.51;102066.84;5083742;28;20131;-63
2022/07/16 04:12:33;;;;;;;4.10;2.30;;;;;;;20.26;44.41;102064.09;5085695;28;20041;-63
2022/07/16 04:15:02;;;;;;;4.47;2.55;;;;;;;20.25;44.69;102071.47;5076072;28;20482;-63
2022/07/16 04:17:30;;;;;;;4.32;2.17;;;;;;;20.24;44.94;102071.72;5080011;28;20049;-63
2022/07/16 04:19:58;;;;;;;4.50;2.53;;;;;;;20.23;44.96;102070.91;5080286;28;20044;-63
2022/07/16 04:22:26;;;;;;;6.10;2.10;;;;;;;20.23;45.13;102075.53;5096620;28;20048;-63
2022/07/16 04:24:53;;;;;;;6.20;2.75;;;;;;;20.22;45.24;102073.88;5079923;28;20175;-63
2022/07/16 04:27:21;;;;;;;4.78;2.10;;;;;;;20.22;45.40;102071.97;5087618;28;20051;-63
2022/07/16 04:29:49;;;;;;;8.45;2.90;;;;;;;20.21;45.97;102085.88;5072613;28;20040;-63
2022/07/16 04:32:18;;;;;;;6.88;3.20;;;;;;;20.19;46.27;102090.78;5085321;28;20052;-63
2022/07/16 04:34:46;;;;;;;5.57;2.55;;;;;;;20.17;46.53;102090.22;5073174;28;20053;-63
2022/07/16 04:37:14;;;;;;;6.68;2.80;;;;;;;20.17;46.52;102092.94;5078808;28;20526;-63
2022/07/16 04:39:42;;;;;;;3.75;2.50;;;;;;;20.15;46.74;102090.47;5075729;28;20063;-63
2022/07/16 04:42:09;;;;;;;5.15;2.58;;;;;;;20.12;46.94;102085.50;5079564;28;20048;-63
2022/07/16 04:44:37;;;;;;;5.75;2.85;;;;;;;20.12;46.95;102093.69;5085090;28;20044;-63
2022/07/16 04:47:05;;;;;;;5.28;2.60;;;;;;;20.10;47.30;102096.69;5079161;28;20123;-63
2022/07/16 04:49:34;;;;;;;5.10;2.75;;;;;;;20.08;47.86;102093.38;5084354;28;20045;-63
2022/07/16 04:52:02;;;;;;;8.13;2.95;;;;;;;20.09;48.04;102094.22;5083440;28;20056;-63
2022/07/16 04:54:30;;;;;;;8.63;2.70;;;;;;;20.07;48.16;102096.38;5078703;28;20129;-63
2022/07/16 04:56:57;;;;;;;7.40;2.80;;;;;;;20.06;48.06;102098.28;5081080;28;20048;-63
2022/07/16 04:59:25;;;;;;;6.13;2.53;;;;;;;20.06;48.06;102095.53;5078448;28;20136;-65
2022/07/16 05:01:53;;;;;;;4.97;2.70;;;;;;;20.06;48.03;102100.19;5080644;28;20060;-63
2022/07/16 05:04:42;;;;;;;6.97;2.92;;;;;;;20.07;48.17;102101.84;5082669;28;20076;-64
2022/07/16 05:07:10;;;;;;;3.05;2.50;;;;;;;20.06;48.33;102106.47;4718780;28;9999860;-64
2022/07/16 05:09:38;;;;;;;5.88;2.85;;;;;;;20.01;47.86;102098.22;5081833;28;20103;-64
2022/07/16 05:12:06;;;;;;;5.30;2.42;;;;;;;20.07;48.05;102107.28;5077921;28;20129;-64
2022/07/16 05:14:34;;;;;;;7.85;2.53;;;;;;;20.08;48.23;102106.22;5081217;28;20083;-63
2022/07/16 05:17:02;;;;;;;5.60;2.30;;;;;;;20.09;47.83;102110.59;5083094;28;20113;-64
2022/07/16 05:19:30;;;;;;;4.00;2.60;;;;;;;20.10;47.90;102121.25;5071608;28;20096;-62
2022/07/16 05:22:00;;;;;;;5.15;2.60;;;;;;;20.11;48.29;102122.91;5075830;28;20064;-61
2022/07/16 05:24:27;;;;;;;7.25;2.80;;;;;;;20.13;48.46;102128.94;5078151;28;20052;-62
2022/07/16 05:26:55;;;;;;;5.38;2.55;;;;;;;20.10;48.50;102126.72;5078327;28;20399;-63
2022/07/16 05:29:23;;;;;;;6.13;2.53;;;;;;;20.16;49.24;102124.88;5068313;28;20098;-62
2022/07/16 05:31:51;;;;;;;8.32;2.50;;;;;;;20.18;49.24;102132.81;5080968;28;20044;-63
2022/07/16 05:34:18;;;;;;;8.95;2.58;;;;;;;20.20;49.88;102122.44;5081233;28;20048;-63
2022/07/16 05:36:46;;;;;;;3.85;2.33;;;;;;;20.21;49.93;102133.13;5085892;28;20052;-65
2022/07/16 05:39:15;;;;;;;6.43;2.42;;;;;;;20.24;50.42;102138.06;5076257;28;20084;-63
2022/07/16 05:41:43;;;;;;;5.20;2.30;;;;;;;20.25;50.49;102137.00;5071425;28;20049;-63
2022/07/16 05:44:11;;;;;;;4.78;2.10;;;;;;;20.27;50.62;102137.56;5073340;28;21366;-63
2022/07/16 05:46:38;;;;;;;7.97;2.53;;;;;;;20.28;50.88;102132.94;5070787;28;20662;-64
2022/07/16 05:49:06;;;;;;;3.80;2.55;;;;;;;20.30;50.94;102134.31;5072487;28;20049;-64
2022/07/16 05:51:34;;;;;;;6.60;2.08;;;;;;;20.32;51.53;102140.34;5072375;28;20087;-63
2022/07/16 05:54:01;;;;;;;4.40;1.98;;;;;;;20.33;51.39;102139.28;5075505;28;20071;-64
2022/07/16 05:56:31;;;;;;;4.93;1.90;;;;;;;20.36;51.35;102137.94;5074728;28;20083;-63
2022/07/16 05:59:02;;;;;;;4.85;1.95;;;;;;;20.37;51.66;102145.88;5071831;28;20048;-64
2022/07/16 06:01:30;;;;;;;4.63;1.83;;;;;;;20.40;51.63;102147.28;5072751;28;20040;-64
2022/07/16 06:03:58;;;;;;;5.75;1.95;;;;;;;20.42;52.11;102147.88;5069006;28;20601;-64
2022/07/16 06:06:26;;;;;;;3.13;1.45;;;;;;;20.42;52.30;102147.88;5075329;28;20044;-64
2022/07/16 06:08:53;;;;;;;6.63;2.05;;;;;;;20.45;52.21;102147.34;5077117;28;20087;-63
2022/07/16 06:11:21;;;;;;;4.82;1.85;;;;;;;20.48;52.13;102152.31;5075961;28;20049;-65
2022/07/16 06:13:50;;;;;;;5.32;1.73;;;;;;;20.51;52.21;102157.25;5069663;28;20049;-64
2022/07/16 06:16:19;;;;;;;3.80;1.95;;;;;;;20.53;52.12;102157.81;5078232;28;20048;-64
2022/07/16 06:18:47;;;;;;;7.95;2.28;;;;;;;20.57;52.04;102161.69;5072256;28;20052;-63
2022/07/16 06:21:15;;;;;;;3.58;1.70;;;;;;;20.60;51.83;102165.81;5075780;28;20049;-63
2022/07/16 06:23:43;;;;;;;6.93;1.90;;;;;;;20.64;51.86;102166.94;5074817;28;20063;-64
2022/07/16 06:26:11;;;;;;;3.67;1.70;;;;;;;20.65;51.81;102168.59;5074306;28;20106;-66
2022/07/16 06:28:38;;;;;;;5.85;1.45;;;;;;;20.69;51.73;102177.94;5075583;28;20072;-65
2022/07/16 06:31:08;;;;;;;3.30;1.80;;;;;;;20.71;51.36;102173.88;5078280;28;20482;-64
2022/07/16 06:33:35;;;;;;;3.20;1.38;;;;;;;20.72;51.37;102171.97;5073160;28;20045;-63
2022/07/16 06:36:05;;;;;;;3.03;1.35;;;;;;;20.73;51.30;102179.06;5077126;28;20067;-64
2022/07/16 06:38:33;;;;;;;3.60;1.58;;;;;;;20.73;51.26;102179.06;5069090;28;20107;-64
2022/07/16 06:41:01;;;;;;;3.13;1.20;;;;;;;20.72;51.29;102178.25;5075119;28;20091;-64
2022/07/16 06:43:29;;;;;;;5.22;1.40;;;;;;;20.72;51.17;102183.72;5075758;28;20088;-65
2022/07/16 06:45:56;;;;;;;4.93;1.25;;;;;;;20.69;51.38;102181.50;5074469;28;20053;-62
2022/07/16 06:48:26;;;;;;;2.33;1.00;;;;;;;20.70;51.36;102185.06;5078965;28;20051;-64
2022/07/16 06:50:54;;;;;;;3.28;2.05;;;;;;;20.67;51.28;102188.28;5080909;28;20040;-64
2022/07/16 06:53:22;;;;;;;3.63;1.30;;;;;;;20.67;51.21;102186.38;5089302;28;20044;-64
2022/07/16 06:55:50;;;;;;;2.70;1.00;;;;;;;20.67;51.23;102197.31;5090724;28;20070;-63
2022/07/16 06:58:17;;;;;;;2.97;1.60;;;;;;;20.67;51.37;102201.94;5076031;28;20421;-63
2022/07/16 07:00:45;;;;;;;2.67;1.15;;;;;;;20.67;51.28;102201.94;5082068;28;20049;-64
2022/07/16 07:03:13;;;;;;;3.35;1.38;;;;;;;20.69;51.13;102210.72;5103759;28;20063;-63
2022/07/16 07:05:42;;;;;;;2.05;1.10;;;;;;;20.67;51.19;102208.25;5085094;28;20048;-65
2022/07/16 07:08:10;;;;;;;5.40;1.55;;;;;;;20.69;51.00;102210.72;5086902;28;20056;-64
2022/07/16 07:10:37;;;;;;;3.47;1.40;;;;;;;20.68;50.83;102215.34;5083237;28;20049;-64
2022/07/16 07:13:05;;;;;;;3.90;1.77;;;;;;;20.69;50.88;102227.13;5066968;28;20106;-63
2022/07/16 07:15:33;;;;;;;2.10;1.27;;;;;;;20.69;50.86;102221.66;5079108;28;20078;-63
2022/07/16 07:18:01;;;;;;;2.38;1.20;;;;;;;20.67;50.82;102227.38;5089996;28;20052;-63
2022/07/16 07:20:29;;;;;;;4.30;1.40;;;;;;;20.68;50.51;102239.94;5073291;28;20044;-63
2022/07/16 07:22:58;;;;;;;4.22;1.23;;;;;;;20.66;50.32;102242.09;5093546;28;20075;-64
2022/07/16 07:25:26;;;;;;;6.75;1.60;;;;;;;20.65;50.28;102239.63;5088895;28;20059;-64
2022/07/16 07:27:55;;;;;;;2.72;1.00;;;;;;;20.64;50.18;102241.53;5094500;28;20139;-65
2022/07/16 07:30:23;;;;;;;2.85;1.33;;;;;;;20.64;50.12;102238.81;5092905;28;20068;-64
2022/07/16 07:32:50;;;;;;;4.05;1.63;;;;;;;20.63;50.06;102245.34;5081527;28;20040;-64
2022/07/16 07:35:18;;;;;;;1.90;1.05;;;;;;;20.65;49.80;102237.72;5084703;28;20052;-64
2022/07/16 07:37:46;;;;;;;2.28;1.20;;;;;;;20.65;49.83;102242.38;5088667;28;20095;-64
2022/07/16 07:40:15;;;;;;;2.45;0.90;;;;;;;20.65;49.77;102237.72;5099531;28;20497;-64
2022/07/16 07:42:43;;;;;;;2.78;1.23;;;;;;;20.67;49.69;102245.66;5094834;28;20052;-64
2022/07/16 07:45:12;;;;;;;2.63;1.20;;;;;;;20.68;49.51;102237.22;5086512;28;20052;-64
2022/07/16 07:47:40;;;;;;;1.00;0.88;;;;;;;20.67;49.30;102243.75;5084510;28;20532;-64
2022/07/16 07:50:09;;;;;;;4.68;1.50;;;;;;;20.69;49.17;102243.50;5087713;28;20048;-64
2022/07/16 07:52:38;;;;;;;3.53;1.30;;;;;;;20.70;49.09;102250.63;5080298;28;20057;-64
2022/07/16 07:55:06;;;;;;;3.10;1.20;;;;;;;20.71;49.12;102249.53;5085338;28;20130;-63
2022/07/16 07:57:36;;;;;;;2.47;1.30;;;;;;;20.72;49.07;102251.19;5097768;28;20363;-64
2022/07/16 08:00:05;;;;;;;5.05;1.27;;;;;;;20.75;48.85;102261.59;5094303;28;20059;-64
2022/07/16 08:02:33;;;;;;;3.33;1.10;;;;;;;20.77;48.78;102248.53;5106881;28;20059;-64
2022/07/16 08:05:01;;;;;;;1.95;0.93;;;;;;;20.78;48.45;102252.91;5080758;28;20079;-65
2022/07/16 08:07:29;;;;;;;2.75;1.50;;;;;;;20.79;48.62;102262.75;5093691;28;20048;-64
2022/07/16 08:09:57;;;;;;;4.57;1.20;;;;;;;20.79;48.37;102269.03;5091586;28;20049;-64
2022/07/16 08:12:25;;;;;;;2.58;1.00;;;;;;;20.81;48.32;102268.75;5074934;28;20414;-64
2022/07/16 08:14:54;;;;;;;2.40;1.25;;;;;;;20.83;48.23;102274.78;5084314;28;20044;-64
2022/07/16 08:17:22;;;;;;;2.90;1.30;;;;;;;20.82;48.23;102261.38;5081144;28;20049;-65
2022/07/16 08:19:50;;;;;;;6.80;1.15;;;;;;;20.85;48.23;102277.25;5095294;28;20591;-64
2022/07/16 08:22:18;;;;;;;4.43;1.30;;;;;;;20.85;48.18;102280.81;5075202;28;20056;-64
2022/07/16 08:27:31;;;;;;;0.95;0.82;;;;;;;20.87;47.79;102286.03;5085458;28;20059;-63
2022/07/16 08:30:00;;;;;;;2.38;1.20;;;;;;;20.86;47.82;102279.75;5092325;28;20048;-63
2022/07/16 08:32:28;;;;;;;1.73;0.93;;;;;;;20.88;47.46;102282.22;5086843;28;20048;-63
2022/07/16 08:34:56;;;;;;;2.58;1.10;;;;;;;20.88;47.48;102288.50;5083978;28;20049;-64
2022/07/16 08:37:35;;;;;;;4.45;1.33;;;;;;;20.90;47.36;102291.00;5093505;28;20052;-64
2022/07/16 08:40:05;;;;;;;2.53;1.15;;;;;;;20.90;47.53;102291.81;5086896;28;20044;-64
2022/07/16 08:42:34;;;;;;;2.70;1.00;;;;;;;20.90;47.53;102294.56;5086693;28;20480;-64
2022/07/16 08:45:06;;;;;;;6.43;1.30;;;;;;;20.93;47.45;102304.16;5079533;28;20533;-64
2022/07/16 08:47:35;;;;;;;3.70;1.33;;;;;;;20.94;47.43;102294.88;5085730;28;20075;-64
2022/07/16 08:50:08;;;;;;;2.45;1.02;;;;;;;20.96;47.38;102307.19;5085151;28;20103;-64
2022/07/16 08:52:40;;;;;;;1.98;0.98;;;;;;;20.97;47.17;102310.75;5083781;28;20039;-64
2022/07/16 08:55:09;;;;;;;2.03;1.00;;;;;;;21.01;47.24;102309.97;5082330;28;20052;-65
2022/07/16 08:57:39;;;;;;;3.13;0.77;;;;;;;21.03;47.13;102312.47;5073437;28;20056;-65
2022/07/16 09:00:14;;;;;;;3.35;1.00;;;;;;;21.01;46.94;102300.97;5093306;28;20454;-64
2022/07/16 09:02:42;;;;;;;2.30;1.20;;;;;;;21.08;46.87;102313.34;5085713;28;20462;-63
2022/07/16 09:05:10;;;;;;;3.33;1.35;;;;;;;21.10;46.85;102318.56;5074991;28;20048;-64
2022/07/16 09:07:38;;;;;;;4.25;1.40;;;;;;;21.09;46.85;102316.91;5093495;28;20045;-65
2022/07/16 09:10:08;;;;;;;5.03;1.55;;;;;;;21.10;46.55;102322.13;5077822;28;20041;-64
2022/07/16 09:12:39;;;;;;;2.33;1.23;;;;;;;21.09;46.37;102331.41;5082374;28;20048;-63
2022/07/16 09:15:25;;;;;;;2.70;1.48;;;;;;;21.11;46.02;102329.22;5082054;28;20052;-63
2022/07/16 09:18:16;;;;;;;3.00;1.10;;;;;;;21.12;45.80;102332.78;5077218;28;20049;-63
2022/07/16 09:20:47;;;;;;;2.88;1.00;;;;;;;21.11;45.57;102333.88;5077768;28;20056;-63
2022/07/16 09:23:35;;;;;;;2.45;1.00;;;;;;;21.14;45.53;102336.09;5084218;28;20053;-64
2022/07/16 09:26:09;;;;;;;2.85;1.00;;;;;;;21.12;45.60;102333.63;5075709;28;20087;-64
2022/07/16 09:28:43;;;;;;;1.75;0.90;;;;;;;21.18;45.66;102336.41;5094101;28;20053;-64
2022/07/16 09:31:31;;;;;;;2.47;1.20;;;;;;;21.20;45.56;102340.53;5081753;28;20102;-64
2022/07/16 09:34:01;;;;;;;3.08;1.30;;;;;;;21.23;45.61;102341.97;5081642;28;20116;-64
2022/07/16 09:36:29;;;;;;;3.05;1.13;;;;;;;21.20;45.59;102335.06;5074525;28;20430;-64
2022/07/16 09:38:57;;;;;;;2.42;1.20;;;;;;;21.28;45.31;102342.84;5097885;28;20048;-64
2022/07/16 09:41:25;;;;;;;5.03;1.60;;;;;;;21.27;45.14;102333.00;5084477;28;20045;-64
2022/07/16 09:43:54;;;;;;;4.70;1.10;;;;;;;21.29;45.20;102349.16;5098026;28;20048;-63
2022/07/16 09:46:24;;;;;;;3.92;1.67;;;;;;;21.28;44.86;102350.22;5089397;28;20055;-63
2022/07/16 09:48:53;;;;;;;3.22;1.17;;;;;;;21.28;44.74;102347.50;5105255;28;20052;-64
2022/07/16 09:51:25;;;;;;;2.05;1.20;;;;;;;21.29;44.88;102347.25;5093184;28;20049;-63
2022/07/16 09:53:54;;;;;;;5.55;1.35;;;;;;;21.25;44.31;102342.53;5093099;28;20044;-63
2022/07/16 09:56:23;;;;;;;2.35;1.20;;;;;;;21.24;44.11;102347.19;5083861;28;20045;-64
2022/07/16 09:58:53;;;;;;;1.83;1.00;;;;;;;21.28;43.97;102358.44;5099584;28;20055;-64
2022/07/16 10:01:23;;;;;;;1.45;1.08;;;;;;;21.16;43.89;102338.56;5074544;28;20398;-64
2022/07/16 10:03:52;;;;;;;3.05;1.40;;;;;;;21.25;43.78;102348.84;5089862;28;20142;-65
2022/07/16 10:06:20;;;;;;;2.60;1.50;;;;;;;21.28;43.80;102359.25;5096286;28;20045;-64
2022/07/16 10:08:47;;;;;;;4.18;1.38;;;;;;;21.30;43.70;102362.56;5081310;28;20107;-63
2022/07/16 10:11:15;;;;;;;3.97;1.70;;;;;;;21.32;43.77;102360.41;5082314;28;20481;-64
2022/07/16 10:13:44;;;;;;;2.20;1.30;;;;;;;21.36;43.68;102364.28;5084520;28;20122;-63
2022/07/16 10:16:13;;;;;;;2.00;1.15;;;;;;;21.38;43.78;102353.06;5087518;28;20071;-64
2022/07/16 10:18:44;;;;;;;3.47;1.02;;;;;;;21.41;43.43;102361.59;5073319;28;20049;-64
2022/07/16 10:21:14;;;;;;;1.65;0.90;;;;;;;21.42;42.61;102365.97;5084920;28;20082;-64
2022/07/16 10:23:44;;;;;;;2.30;1.23;;;;;;;21.42;42.89;102365.16;5103523;28;20063;-64
2022/07/16 10:26:17;;;;;;;2.22;1.20;;;;;;;21.43;43.19;102361.34;5089210;28;20044;-64
2022/07/16 10:28:48;;;;;;;2.10;1.05;;;;;;;21.47;43.33;102375.31;5090495;28;20040;-64
2022/07/16 10:31:31;;;;;;;1.80;1.00;;;;;;;21.51;43.16;102379.19;5097838;28;20124;-64
2022/07/16 10:34:39;;;;;;;2.10;1.02;;;;;;;21.54;43.03;102384.97;5085224;28;20079;-64
2022/07/16 10:37:24;;;;;;;2.90;1.10;;;;;;;21.57;42.86;102389.94;5080072;28;20052;-64
2022/07/16 10:40:01;;;;;;;4.10;1.50;;;;;;;21.58;42.77;102388.03;5079216;28;20315;-64
2022/07/16 10:42:29;;;;;;;2.80;1.00;;;;;;;21.58;42.82;102383.38;5086043;28;21274;-64
2022/07/16 10:44:57;;;;;;;3.22;1.40;;;;;;;21.62;42.74;102375.47;5097588;28;20120;-64
2022/07/16 10:47:47;;;;;;;2.78;1.00;;;;;;;21.64;42.16;102390.56;5086215;28;20078;-64
2022/07/16 10:50:24;;;;;;;2.80;1.25;;;;;;;21.64;41.84;102401.50;5094177;28;20078;-64
2022/07/16 10:52:53;;;;;;;4.03;1.20;;;;;;;21.64;41.37;102381.53;5078531;28;20064;-64
2022/07/16 10:55:33;;;;;;;4.03;1.20;;;;;;;21.65;41.61;102385.91;5099263;28;20049;-64
2022/07/16 10:58:02;;;;;;;4.80;1.25;;;;;;;21.66;41.33;102388.38;5080220;28;20071;-64
2022/07/16 11:00:30;;;;;;;4.15;0.98;;;;;;;21.69;41.59;102396.06;5076717;28;20067;-64
2022/07/16 11:03:00;;;;;;;1.70;0.90;;;;;;;21.73;42.02;102393.66;5085008;28;20047;-64
2022/07/16 11:05:44;;;;;;;2.22;1.02;;;;;;;21.79;41.98;102391.78;5097153;28;20119;-64
2022/07/16 11:08:14;;;;;;;2.40;1.20;;;;;;;21.84;41.97;102402.78;5086999;28;20134;-64
2022/07/16 11:10:42;;;;;;;2.78;1.50;;;;;;;21.85;41.46;102399.78;5101206;28;20074;-64
2022/07/16 11:13:15;;;;;;;1.48;0.80;;;;;;;21.88;41.80;102406.66;5077870;28;20044;-64
2022/07/16 11:15:44;;;;;;;5.32;1.20;;;;;;;21.90;41.46;102397.09;5088678;28;20056;-64
2022/07/16 11:18:16;;;;;;;3.47;1.20;;;;;;;21.94;41.74;102398.22;5082420;28;20119;-64
2022/07/16 11:20:46;;;;;;;5.10;1.40;;;;;;;21.97;41.71;102394.97;5086817;28;20525;-65
2022/07/16 11:23:17;;;;;;;5.28;1.45;;;;;;;22.02;41.84;102392.31;5087367;28;20099;-64
2022/07/16 11:26:01;;;;;;;2.10;1.10;;;;;;;22.05;41.57;102390.97;5093582;28;20048;-64
2022/07/16 11:28:29;;;;;;;1.80;1.10;;;;;;;22.08;41.40;102402.22;5086669;28;20114;-64
2022/07/16 11:31:04;;;;;;;2.90;1.08;;;;;;;22.11;40.88;102405.53;5072406;28;20068;-64
2022/07/16 11:33:54;;;;;;;4.55;1.40;;;;;;;22.08;41.09;102404.97;5090182;28;20060;-64
2022/07/16 11:36:26;;;;;;;3.05;1.40;;;;;;;22.10;40.69;102403.88;5095472;28;20041;-64
2022/07/16 11:38:58;;;;;;;3.60;1.20;;;;;;;22.10;40.41;102401.97;5075273;28;20053;-64
2022/07/16 11:41:26;;;;;;;2.75;1.15;;;;;;;22.10;40.66;102404.69;5080289;28;20082;-64
2022/07/16 11:43:54;;;;;;;3.47;1.35;;;;;;;22.10;40.12;102407.44;5092788;28;20044;-65